createdAt,value
2023-04-25T00:00:37.301Z,1.83
2023-04-25T00:01:37.407Z,1.52
2023-04-25T00:02:37.494Z,1.49
2023-04-25T00:03:37.540Z,1.49
2023-04-25T00:04:37.704Z,1.63
2023-04-25T00:05:37.593Z,1.28
2023-04-25T00:06:37.559Z,1.10
2023-04-25T00:07:37.579Z,1.23
2023-04-25T00:08:37.612Z,1.36
2023-04-25T00:09:37.617Z,1.06
2023-04-25T00:10:37.638Z,1.16
2023-04-25T00:11:37.710Z,1.42
2023-04-25T00:12:37.762Z,1.31
2023-04-25T00:13:37.797Z,1.20
2023-04-25T00:14:37.906Z,1.28
2023-04-25T00:15:37.973Z,1.30
2023-04-25T00:16:38.069Z,1.31
2023-04-25T00:17:38.146Z,1.20
2023-04-25T00:18:38.097Z,1.43
2023-04-25T00:19:38.158Z,1.05
2023-04-25T00:20:38.229Z,1.45
2023-04-25T00:21:38.249Z,1.49
2023-04-25T00:22:38.349Z,1.56
2023-04-25T00:23:38.331Z,1.21
2023-04-25T00:24:38.358Z,1.33
2023-04-25T00:25:38.366Z,1.53
2023-04-25T00:26:38.440Z,1.19
2023-04-25T00:27:38.514Z,1.55
2023-04-25T00:28:38.567Z,1.66
2023-04-25T00:29:38.607Z,1.84
2023-04-25T00:30:38.610Z,1.92
2023-04-25T00:31:38.641Z,1.66
2023-04-25T00:32:38.775Z,1.70
2023-04-25T00:33:38.676Z,1.97
2023-04-25T00:34:38.793Z,1.81
2023-04-25T00:35:38.761Z,1.50
2023-04-25T00:36:38.729Z,2.19
2023-04-25T00:37:38.752Z,2.20
2023-04-25T00:38:38.765Z,1.78
2023-04-25T00:39:38.790Z,1.70
2023-04-25T00:40:38.805Z,1.70
2023-04-25T00:41:38.834Z,2.04
2023-04-25T00:42:38.960Z,2.53
2023-04-25T00:43:38.972Z,2.48
2023-04-25T00:44:38.952Z,2.01
2023-04-25T00:45:38.902Z,2.31
2023-04-25T00:46:38.958Z,2.41
2023-04-25T00:47:39.001Z,2.39
2023-04-25T00:48:39.051Z,2.59
2023-04-25T00:49:38.970Z,2.18
2023-04-25T00:50:39.000Z,1.74
2023-04-25T00:51:39.056Z,2.12
2023-04-25T00:52:39.115Z,1.93
2023-04-25T00:53:39.093Z,1.87
2023-04-25T00:54:39.180Z,2.35
2023-04-25T00:55:39.138Z,2.12
2023-04-25T00:56:39.301Z,2.65
2023-04-25T00:57:39.277Z,2.21
2023-04-25T00:58:39.245Z,1.71
2023-04-25T00:59:39.314Z,1.65
2023-04-25T01:00:39.624Z,1.89
2023-04-25T01:01:39.424Z,1.74
2023-04-25T01:02:39.496Z,2.07
2023-04-25T01:03:39.615Z,2.23
2023-04-25T01:04:39.505Z,2.12
2023-04-25T01:05:39.537Z,3.05
2023-04-25T01:06:39.583Z,2.19
2023-04-25T01:07:39.570Z,2.51
2023-04-25T01:08:39.589Z,2.64
2023-04-25T01:09:39.669Z,2.59
2023-04-25T01:10:39.628Z,2.54
2023-04-25T01:11:39.732Z,2.66
2023-04-25T01:12:39.766Z,2.52
2023-04-25T01:13:39.775Z,2.73
2023-04-25T01:14:39.811Z,3.05
2023-04-25T01:15:39.818Z,2.54
2023-04-25T01:16:39.986Z,2.65
2023-04-25T01:17:39.943Z,2.91
2023-04-25T01:18:39.927Z,2.56
2023-04-25T01:19:40.593Z,2.62
2023-04-25T01:20:39.992Z,2.67
2023-04-25T01:21:40.033Z,2.55
2023-04-25T01:22:40.063Z,2.67
2023-04-25T01:23:40.115Z,2.93
2023-04-25T01:24:40.143Z,2.39
2023-04-25T01:25:40.158Z,1.77
2023-04-25T01:26:40.185Z,2.41
2023-04-25T01:27:40.229Z,2.82
2023-04-25T01:28:41.078Z,2.33
2023-04-25T01:29:40.375Z,1.99
2023-04-25T01:30:40.598Z,2.60
2023-04-25T01:31:40.589Z,2.13
2023-04-25T01:32:40.504Z,2.74
2023-04-25T01:33:40.525Z,2.78
2023-04-25T01:34:40.544Z,1.83
2023-04-25T01:35:40.599Z,2.15
2023-04-25T01:36:40.566Z,2.39
2023-04-25T01:37:40.652Z,2.46
2023-04-25T01:38:40.688Z,2.18
2023-04-25T01:39:40.703Z,1.77
2023-04-25T01:40:40.731Z,2.21
2023-04-25T01:41:40.777Z,2.41
2023-04-25T01:42:40.771Z,2.43
2023-04-25T01:43:40.797Z,1.91
2023-04-25T01:44:40.818Z,2.45
2023-04-25T01:45:40.866Z,1.85
2023-04-25T01:46:40.936Z,2.49
2023-04-25T01:47:40.938Z,2.80
2023-04-25T01:48:41.018Z,2.32
2023-04-25T01:49:41.002Z,2.47
2023-04-25T01:50:41.013Z,2.52
2023-04-25T01:51:41.028Z,2.04
2023-04-25T01:52:41.024Z,2.64
2023-04-25T01:53:41.124Z,2.24
2023-04-25T01:54:41.150Z,2.11
2023-04-25T01:55:41.227Z,2.52
2023-04-25T01:56:42.147Z,2.93
2023-04-25T01:57:41.273Z,2.08
2023-04-25T01:58:41.334Z,2.35
2023-04-25T01:59:41.447Z,2.21
2023-04-25T02:00:41.431Z,2.64
2023-04-25T02:01:41.486Z,2.19
2023-04-25T02:02:41.597Z,2.43
2023-04-25T02:03:41.559Z,2.52
2023-04-25T02:04:41.610Z,2.59
2023-04-25T02:05:41.510Z,2.74
2023-04-25T02:06:41.585Z,2.33
2023-04-25T02:07:41.659Z,2.38
2023-04-25T02:08:41.644Z,2.65
2023-04-25T02:09:41.699Z,2.96
2023-04-25T02:10:41.714Z,2.36
2023-04-25T02:11:41.685Z,2.68
2023-04-25T02:12:41.732Z,3.10
2023-04-25T02:13:41.669Z,2.56
2023-04-25T02:14:41.682Z,2.99
2023-04-25T02:15:41.815Z,2.65
2023-04-25T02:16:41.838Z,2.73
2023-04-25T02:17:41.802Z,3.02
2023-04-25T02:18:41.789Z,3.14
2023-04-25T02:19:41.784Z,2.56
2023-04-25T02:20:41.781Z,2.51
2023-04-25T02:21:42.629Z,2.76
2023-04-25T02:22:41.893Z,2.50
2023-04-25T02:23:41.898Z,3.05
2023-04-25T02:24:41.952Z,2.78
2023-04-25T02:25:42.030Z,2.99
2023-04-25T02:26:42.062Z,2.80
2023-04-25T02:27:42.096Z,3.49
2023-04-25T02:28:42.110Z,2.86
2023-04-25T02:29:42.163Z,3.46
2023-04-25T02:30:42.212Z,2.74
2023-04-25T02:31:42.304Z,3.03
2023-04-25T02:32:42.256Z,2.98
2023-04-25T02:33:42.381Z,2.64
2023-04-25T02:34:42.351Z,3.02
2023-04-25T02:35:42.319Z,2.79
2023-04-25T02:36:42.360Z,3.19
2023-04-25T02:37:42.433Z,2.90
2023-04-25T02:38:42.379Z,2.85
2023-04-25T02:39:42.428Z,2.93
2023-04-25T02:40:42.379Z,3.12
2023-04-25T02:41:42.428Z,2.94
2023-04-25T02:42:42.432Z,3.05
2023-04-25T02:43:42.402Z,3.08
2023-04-25T02:44:42.438Z,3.05
2023-04-25T02:45:42.475Z,3.01
2023-04-25T02:46:42.533Z,3.26
2023-04-25T02:47:42.474Z,3.10
2023-04-25T02:48:42.503Z,2.99
2023-04-25T02:49:42.603Z,2.84
2023-04-25T02:50:42.538Z,2.87
2023-04-25T02:51:42.526Z,3.52
2023-04-25T02:52:42.550Z,3.77
2023-04-25T02:53:42.556Z,3.19
2023-04-25T02:54:42.613Z,3.63
2023-04-25T02:55:42.592Z,3.53
2023-04-25T02:56:42.648Z,3.35
2023-04-25T02:57:42.637Z,2.69
2023-04-25T02:58:42.791Z,3.50
2023-04-25T02:59:42.658Z,3.13
2023-04-25T03:00:42.739Z,3.11
2023-04-25T03:01:42.705Z,3.65
2023-04-25T03:02:42.742Z,3.25
2023-04-25T03:03:42.778Z,3.25
2023-04-25T03:04:42.973Z,3.04
2023-04-25T03:05:42.824Z,3.45
2023-04-25T03:06:42.847Z,2.32
2023-04-25T03:07:42.856Z,2.56
2023-04-25T03:08:42.925Z,2.88
2023-04-25T03:09:42.950Z,3.03
2023-04-25T03:10:42.958Z,2.66
2023-04-25T03:11:42.984Z,2.63
2023-04-25T03:12:43.024Z,2.28
2023-04-25T03:13:43.092Z,3.07
2023-04-25T03:14:43.166Z,3.11
2023-04-25T03:15:43.115Z,3.06
2023-04-25T03:16:43.153Z,3.10
2023-04-25T03:17:43.169Z,2.69
2023-04-25T03:18:43.170Z,2.89
2023-04-25T03:19:43.183Z,2.98
2023-04-25T03:20:43.200Z,2.87
2023-04-25T03:21:43.270Z,2.77
2023-04-25T03:22:43.246Z,3.17
2023-04-25T03:23:43.252Z,2.50
2023-04-25T03:24:43.283Z,2.76
2023-04-25T03:25:43.296Z,2.19
2023-04-25T03:26:43.320Z,2.62
2023-04-25T03:27:43.351Z,2.48
2023-04-25T03:28:43.354Z,3.01
2023-04-25T03:29:43.371Z,3.19
2023-04-25T03:30:43.432Z,2.37
2023-04-25T03:31:43.490Z,2.67
2023-04-25T03:32:43.546Z,2.36
2023-04-25T03:33:43.499Z,2.55
2023-04-25T03:34:43.514Z,2.28
2023-04-25T03:35:43.538Z,2.34
2023-04-25T03:36:43.546Z,2.47
2023-04-25T03:37:43.573Z,2.88
2023-04-25T03:38:43.587Z,2.50
2023-04-25T03:39:43.612Z,2.58
2023-04-25T03:40:43.620Z,2.74
2023-04-25T03:41:43.652Z,2.88
2023-04-25T03:42:44.988Z,3.31
2023-04-25T03:43:43.655Z,2.64
2023-04-25T03:44:43.660Z,2.62
2023-04-25T03:45:43.695Z,2.54
2023-04-25T03:46:43.739Z,2.58
2023-04-25T03:47:43.777Z,2.79
2023-04-25T03:48:43.780Z,2.17
2023-04-25T03:49:44.106Z,3.18
2023-04-25T03:50:43.815Z,2.67
2023-04-25T03:51:43.900Z,2.71
2023-04-25T03:52:43.908Z,2.63
2023-04-25T03:53:43.982Z,2.53
2023-04-25T03:54:44.049Z,2.81
2023-04-25T03:55:44.013Z,2.78
2023-04-25T03:56:44.023Z,2.87
2023-04-25T03:57:44.051Z,3.24
2023-04-25T03:58:44.069Z,2.38
2023-04-25T03:59:44.084Z,3.31
2023-04-25T04:00:44.102Z,2.80
2023-04-25T04:01:44.123Z,2.70
2023-04-25T04:02:45.507Z,3.00
2023-04-25T04:03:44.373Z,2.79
2023-04-25T04:04:44.565Z,2.83
2023-04-25T04:05:44.610Z,2.97
2023-04-25T04:06:44.370Z,2.75
2023-04-25T04:07:44.387Z,2.66
2023-04-25T04:08:44.437Z,2.40
2023-04-25T04:09:44.523Z,2.65
2023-04-25T04:10:44.531Z,3.07
2023-04-25T04:11:44.581Z,2.82
2023-04-25T04:12:44.521Z,2.78
2023-04-25T04:13:44.566Z,2.61
2023-04-25T04:14:44.563Z,2.92
2023-04-25T04:15:44.633Z,2.82
2023-04-25T04:16:44.629Z,2.87
2023-04-25T04:17:44.738Z,3.17
2023-04-25T04:18:44.652Z,2.51
2023-04-25T04:19:44.673Z,2.39
2023-04-25T04:20:44.676Z,2.77
2023-04-25T04:21:44.717Z,2.69
2023-04-25T04:22:44.674Z,2.63
2023-04-25T04:23:44.687Z,2.70
2023-04-25T04:24:44.728Z,2.71
2023-04-25T04:25:44.679Z,2.58
2023-04-25T04:26:44.685Z,2.90
2023-04-25T04:27:44.708Z,2.54
2023-04-25T04:28:44.719Z,2.80
2023-04-25T04:29:44.753Z,2.63
2023-04-25T04:30:44.765Z,2.92
2023-04-25T04:31:44.813Z,2.74
2023-04-25T04:32:44.872Z,2.59
2023-04-25T04:33:44.826Z,2.37
2023-04-25T04:34:44.899Z,2.54
2023-04-25T04:35:44.877Z,2.51
2023-04-25T04:36:44.932Z,2.84
2023-04-25T04:37:44.909Z,2.93
2023-04-25T04:38:44.945Z,3.06
2023-04-25T04:39:45.052Z,2.78
2023-04-25T04:40:45.054Z,2.80
2023-04-25T04:41:45.019Z,3.53
2023-04-25T04:42:45.058Z,2.81
2023-04-25T04:43:45.106Z,3.20
2023-04-25T04:44:45.084Z,2.55
2023-04-25T04:45:45.145Z,3.81
2023-04-25T04:46:45.239Z,3.25
2023-04-25T04:47:45.216Z,3.01
2023-04-25T04:48:45.304Z,3.05
2023-04-25T04:49:45.333Z,3.22
2023-04-25T04:50:45.411Z,2.78
2023-04-25T04:51:45.504Z,9.73
2023-04-25T04:52:45.475Z,7.62
2023-04-25T04:53:45.506Z,4.14
2023-04-25T04:54:45.676Z,3.01
2023-04-25T04:55:45.639Z,3.16
2023-04-25T04:56:45.610Z,2.36
2023-04-25T04:57:45.624Z,8.08
2023-04-25T04:58:45.652Z,4.17
2023-04-25T04:59:45.636Z,4.12
2023-04-25T05:00:45.626Z,4.15
2023-04-25T05:01:45.650Z,2.82
2023-04-25T05:02:45.729Z,2.52
2023-04-25T05:03:45.801Z,3.09
2023-04-25T05:04:45.790Z,3.16
2023-04-25T05:05:45.723Z,3.02
2023-04-25T05:06:47.477Z,2.68
2023-04-25T05:07:45.873Z,2.99
2023-04-25T05:08:46.649Z,2.86
2023-04-25T05:09:46.205Z,2.57
2023-04-25T05:10:45.802Z,2.74
2023-04-25T05:11:45.835Z,3.14
2023-04-25T05:12:45.749Z,2.76
2023-04-25T05:13:45.725Z,2.77
2023-04-25T05:14:45.751Z,3.10
2023-04-25T05:15:45.710Z,3.23
2023-04-25T05:16:45.770Z,2.93
2023-04-25T05:17:45.838Z,3.00
2023-04-25T05:18:45.708Z,2.59
2023-04-25T05:19:45.779Z,3.04
2023-04-25T05:20:45.967Z,3.73
2023-04-25T05:21:45.719Z,2.99
2023-04-25T05:22:45.680Z,3.42
2023-04-25T05:23:45.649Z,3.17
2023-04-25T05:24:46.692Z,3.38
2023-04-25T05:25:45.792Z,2.93
2023-04-25T05:26:45.650Z,3.77
2023-04-25T05:27:45.661Z,3.89
2023-04-25T05:28:45.645Z,3.24
2023-04-25T05:29:45.603Z,3.55
2023-04-25T05:30:45.738Z,3.92
2023-04-25T05:31:45.800Z,4.80
2023-04-25T05:32:45.686Z,3.89
2023-04-25T05:33:45.593Z,3.95
2023-04-25T05:34:45.711Z,3.72
2023-04-25T05:35:45.615Z,2.95
2023-04-25T05:36:45.571Z,3.48
2023-04-25T05:37:45.648Z,3.52
2023-04-25T05:38:46.190Z,4.05
2023-04-25T05:39:45.576Z,4.25
2023-04-25T05:40:46.163Z,3.78
2023-04-25T05:41:45.537Z,3.33
2023-04-25T05:42:45.695Z,3.41
2023-04-25T05:43:46.199Z,3.92
2023-04-25T05:44:45.680Z,4.26
2023-04-25T05:45:45.779Z,3.57
2023-04-25T05:46:45.746Z,4.33
2023-04-25T05:47:46.161Z,4.31
2023-04-25T05:48:45.855Z,3.59
2023-04-25T05:49:45.746Z,4.10
2023-04-25T05:50:46.652Z,3.21
2023-04-25T05:51:45.868Z,2.84
2023-04-25T05:52:45.879Z,3.20
2023-04-25T05:53:45.907Z,2.81
2023-04-25T05:54:46.628Z,2.98
2023-04-25T05:55:45.967Z,3.28
2023-04-25T05:56:46.265Z,3.16
2023-04-25T05:57:46.176Z,3.80
2023-04-25T05:58:46.077Z,3.26
2023-04-25T05:59:46.232Z,2.91
2023-04-25T06:00:46.213Z,3.51
2023-04-25T06:01:46.154Z,3.76
2023-04-25T06:02:46.271Z,3.30
2023-04-25T06:03:46.527Z,3.83
2023-04-25T06:04:46.432Z,3.23
2023-04-25T06:05:46.289Z,3.31
2023-04-25T06:06:46.326Z,3.08
2023-04-25T06:07:46.310Z,3.00
2023-04-25T06:08:46.342Z,3.84
2023-04-25T06:09:46.341Z,3.99
2023-04-25T06:10:46.371Z,3.75
2023-04-25T06:11:46.374Z,3.49
2023-04-25T06:12:46.409Z,3.94
2023-04-25T06:13:46.487Z,2.90
2023-04-25T06:14:46.465Z,3.45
2023-04-25T06:15:46.533Z,3.64
2023-04-25T06:16:46.473Z,3.65
2023-04-25T06:17:46.723Z,2.99
2023-04-25T06:18:46.618Z,3.56
2023-04-25T06:19:46.581Z,3.71
2023-04-25T06:20:47.273Z,2.80
2023-04-25T06:21:46.666Z,3.01
2023-04-25T06:22:46.727Z,2.57
2023-04-25T06:23:46.816Z,3.07
2023-04-25T06:24:47.050Z,3.46
2023-04-25T06:25:47.008Z,3.02
2023-04-25T06:26:46.993Z,3.18
2023-04-25T06:27:46.892Z,2.81
2023-04-25T06:28:47.701Z,5.38
2023-04-25T06:29:46.916Z,4.75
2023-04-25T06:30:46.930Z,14.15
2023-04-25T06:31:47.012Z,29.70
2023-04-25T06:32:47.153Z,11.76
2023-04-25T06:33:47.052Z,4.10
2023-04-25T06:34:47.115Z,27.40
2023-04-25T06:35:47.131Z,19.21
2023-04-25T06:36:47.194Z,22.26
2023-04-25T06:37:47.689Z,25.75
2023-04-25T06:38:47.281Z,37.72
2023-04-25T06:39:47.306Z,13.35
2023-04-25T06:40:48.174Z,3.40
2023-04-25T06:41:47.342Z,4.85
2023-04-25T06:42:47.687Z,13.68
2023-04-25T06:43:47.375Z,15.73
2023-04-25T06:44:47.439Z,23.61
2023-04-25T06:45:48.504Z,19.49
2023-04-25T06:46:47.525Z,4.21
2023-04-25T06:47:47.550Z,3.08
2023-04-25T06:48:47.529Z,4.21
2023-04-25T06:49:47.617Z,12.46
2023-04-25T06:50:47.570Z,5.24
2023-04-25T06:51:47.593Z,4.39
2023-04-25T06:52:47.648Z,5.46
2023-04-25T06:53:47.681Z,5.62
2023-04-25T06:54:47.691Z,3.76
2023-04-25T06:55:48.423Z,3.84
2023-04-25T06:56:47.686Z,3.00
2023-04-25T06:57:48.153Z,3.70
2023-04-25T06:58:47.820Z,4.67
2023-04-25T06:59:47.996Z,4.33
2023-04-25T07:00:47.857Z,3.99
2023-04-25T07:01:47.909Z,5.23
2023-04-25T07:02:48.022Z,4.06
2023-04-25T07:03:48.238Z,3.87
2023-04-25T07:04:48.174Z,3.28
2023-04-25T07:05:48.094Z,3.41
2023-04-25T07:06:48.145Z,3.96
2023-04-25T07:07:48.170Z,3.96
2023-04-25T07:08:48.222Z,3.82
2023-04-25T07:09:48.204Z,3.74
2023-04-25T07:10:49.788Z,2.89
2023-04-25T07:11:48.227Z,3.42
2023-04-25T07:12:48.265Z,2.81
2023-04-25T07:13:48.248Z,2.68
2023-04-25T07:14:48.288Z,3.18
2023-04-25T07:15:48.653Z,3.34
2023-04-25T07:16:49.428Z,3.80
2023-04-25T07:17:49.248Z,2.80
2023-04-25T07:18:49.378Z,3.09
2023-04-25T07:19:48.433Z,2.85
2023-04-25T07:20:48.450Z,2.71
2023-04-25T07:21:48.513Z,3.26
2023-04-25T07:22:48.641Z,3.08
2023-04-25T07:23:48.520Z,3.25
2023-04-25T07:24:48.537Z,3.17
2023-04-25T07:25:48.562Z,2.49
2023-04-25T07:26:48.580Z,2.75
2023-04-25T07:27:48.598Z,2.97
2023-04-25T07:28:48.839Z,2.75
2023-04-25T07:29:48.666Z,2.65
2023-04-25T07:30:48.720Z,2.70
2023-04-25T07:31:48.954Z,2.97
2023-04-25T07:32:48.906Z,2.77
2023-04-25T07:33:49.286Z,2.63
2023-04-25T07:34:51.778Z,2.36
2023-04-25T07:35:49.786Z,2.19
2023-04-25T07:36:48.958Z,2.53
2023-04-25T07:37:48.872Z,3.26
2023-04-25T07:38:50.092Z,3.06
2023-04-25T07:39:48.809Z,2.78
2023-04-25T07:40:49.281Z,2.83
2023-04-25T07:41:48.864Z,2.94
2023-04-25T07:42:48.812Z,2.66
2023-04-25T07:43:49.731Z,2.84
2023-04-25T07:44:48.876Z,3.34
2023-04-25T07:45:48.801Z,2.92
2023-04-25T07:46:48.795Z,2.88
2023-04-25T07:47:48.810Z,2.45
2023-04-25T07:48:49.542Z,2.63
2023-04-25T07:49:50.732Z,2.44
2023-04-25T07:50:48.799Z,3.11
2023-04-25T07:51:48.741Z,3.01
2023-04-25T07:52:48.754Z,2.94
2023-04-25T07:53:50.634Z,2.97
2023-04-25T07:54:50.672Z,3.61
2023-04-25T07:55:48.715Z,3.53
2023-04-25T07:56:52.623Z,3.03
2023-04-25T07:57:55.732Z,3.48
2023-04-25T07:58:53.068Z,2.45
2023-04-25T07:59:48.667Z,2.76
2023-04-25T08:00:48.884Z,3.55
2023-04-25T08:01:49.176Z,3.47
2023-04-25T08:02:48.819Z,2.90
2023-04-25T08:03:48.773Z,3.43
2023-04-25T08:04:48.824Z,2.77
2023-04-25T08:05:48.791Z,2.74
2023-04-25T08:06:48.677Z,2.85
2023-04-25T08:07:48.655Z,2.70
2023-04-25T08:08:49.370Z,2.85
2023-04-25T08:09:48.653Z,2.88
2023-04-25T08:10:48.715Z,2.97
2023-04-25T08:11:48.640Z,2.89
2023-04-25T08:12:48.660Z,3.21
2023-04-25T08:13:48.649Z,3.25
2023-04-25T08:14:48.623Z,2.86
2023-04-25T08:15:48.757Z,3.17
2023-04-25T08:16:48.635Z,3.33
2023-04-25T08:17:48.669Z,2.89
2023-04-25T08:18:48.873Z,3.14
2023-04-25T08:19:48.575Z,2.46
2023-04-25T08:20:48.777Z,3.21
2023-04-25T08:21:48.530Z,3.27
2023-04-25T08:22:48.615Z,2.83
2023-04-25T08:23:48.605Z,3.36
2023-04-25T08:24:49.293Z,2.53
2023-04-25T08:25:48.656Z,2.75
2023-04-25T08:26:48.655Z,3.08
2023-04-25T08:27:48.715Z,3.29
2023-04-25T08:28:49.326Z,2.55
2023-04-25T08:29:48.741Z,2.63
2023-04-25T08:30:48.787Z,3.00
2023-04-25T08:31:48.885Z,3.19
2023-04-25T08:32:53.835Z,2.78
2023-04-25T08:33:49.249Z,2.72
2023-04-25T08:34:48.804Z,3.09
2023-04-25T08:35:48.779Z,2.51
2023-04-25T08:36:48.800Z,3.55
2023-04-25T08:37:48.806Z,3.56
2023-04-25T08:38:51.960Z,3.06
2023-04-25T08:39:48.817Z,3.27
2023-04-25T08:40:51.728Z,2.34
2023-04-25T08:41:48.757Z,2.54
2023-04-25T08:42:48.782Z,2.32
2023-04-25T08:43:49.350Z,3.26
2023-04-25T08:44:48.840Z,2.66
2023-04-25T08:45:48.727Z,2.94
2023-04-25T08:46:48.917Z,2.72
2023-04-25T08:47:48.772Z,2.82
2023-04-25T08:48:49.148Z,3.13
2023-04-25T08:49:48.697Z,6.80
2023-04-25T08:50:51.302Z,10.53
2023-04-25T08:51:49.275Z,10.29
2023-04-25T08:52:48.940Z,11.67
2023-04-25T08:53:53.673Z,3.79
2023-04-25T08:54:50.682Z,3.89
2023-04-25T08:55:49.053Z,3.88
2023-04-25T08:56:49.984Z,3.49
2023-04-25T08:57:48.982Z,2.95
2023-04-25T08:58:49.204Z,3.68
2023-04-25T08:59:48.877Z,2.53
2023-04-25T09:00:48.969Z,3.08
2023-04-25T09:01:48.948Z,2.84
2023-04-25T09:02:49.854Z,3.02
2023-04-25T09:03:49.145Z,3.31
2023-04-25T09:04:49.052Z,2.92
2023-04-25T09:05:49.105Z,3.38
2023-04-25T09:06:49.117Z,2.47
2023-04-25T09:07:50.713Z,2.56
2023-04-25T09:08:49.278Z,2.15
2023-04-25T09:09:49.439Z,2.45
2023-04-25T09:10:49.314Z,2.33
2023-04-25T09:11:49.398Z,3.00
2023-04-25T09:12:49.431Z,2.63
2023-04-25T09:13:49.685Z,2.56
2023-04-25T09:14:49.495Z,2.49
2023-04-25T09:15:49.587Z,2.17
2023-04-25T09:16:49.577Z,2.19
2023-04-25T09:17:49.705Z,2.40
2023-04-25T09:18:49.816Z,2.30
2023-04-25T09:19:49.716Z,1.84
2023-04-25T09:21:00.106Z,2.11
2023-04-25T09:21:50.778Z,2.30
2023-04-25T09:22:49.693Z,2.65
2023-04-25T09:23:50.214Z,3.14
2023-04-25T09:24:49.706Z,2.54
2023-04-25T09:25:49.665Z,1.83
2023-04-25T09:26:51.026Z,2.46
2023-04-25T09:27:49.754Z,2.24
2023-04-25T09:28:49.663Z,2.19
2023-04-25T09:29:49.813Z,1.90
2023-04-25T09:30:49.700Z,1.81
2023-04-25T09:31:49.734Z,1.97
2023-04-25T09:32:52.343Z,16.52
2023-04-25T09:33:51.424Z,16.31
2023-04-25T09:34:49.872Z,10.00
2023-04-25T09:35:49.936Z,7.45
2023-04-25T09:36:50.286Z,3.62
2023-04-25T09:37:50.283Z,2.48
2023-04-25T09:38:50.172Z,3.05
2023-04-25T09:39:50.025Z,2.05
2023-04-25T09:40:49.974Z,1.94
2023-04-25T09:41:50.768Z,1.63
2023-04-25T09:42:49.991Z,2.21
2023-04-25T09:43:50.015Z,1.82
2023-04-25T09:44:50.742Z,1.22
2023-04-25T09:45:50.852Z,1.56
2023-04-25T09:46:50.325Z,1.59
2023-04-25T09:47:50.789Z,2.05
2023-04-25T09:48:51.266Z,1.71
2023-04-25T09:49:50.289Z,1.72
2023-04-25T09:50:51.276Z,1.92
2023-04-25T09:51:50.810Z,1.67
2023-04-25T09:52:50.345Z,1.69
2023-04-25T09:53:50.653Z,1.68
2023-04-25T09:54:50.499Z,1.19
2023-04-25T09:55:50.573Z,1.44
2023-04-25T09:56:51.282Z,1.18
2023-04-25T09:57:50.630Z,1.76
2023-04-25T09:58:50.545Z,1.65
2023-04-25T09:59:50.634Z,1.33
2023-04-25T10:00:50.587Z,1.46
2023-04-25T10:01:50.830Z,1.59
2023-04-25T10:02:50.765Z,1.49
2023-04-25T10:03:50.806Z,1.75
2023-04-25T10:04:51.784Z,1.87
2023-04-25T10:05:51.015Z,1.65
2023-04-25T10:06:51.722Z,1.93
2023-04-25T10:07:50.931Z,1.78
2023-04-25T10:08:50.921Z,1.86
2023-04-25T10:09:51.737Z,1.92
2023-04-25T10:10:50.988Z,1.98
2023-04-25T10:11:51.059Z,1.65
2023-04-25T10:12:51.103Z,3.71
2023-04-25T10:13:51.335Z,2.62
2023-04-25T10:14:51.149Z,1.59
2023-04-25T10:15:51.882Z,10.96
2023-04-25T10:16:51.184Z,4.30
2023-04-25T10:17:51.262Z,2.26
2023-04-25T10:18:51.740Z,2.14
2023-04-25T10:19:52.298Z,1.60
2023-04-25T10:20:53.286Z,1.53
2023-04-25T10:21:51.735Z,1.73
2023-04-25T10:22:52.277Z,2.04
2023-04-25T10:23:51.530Z,1.85
2023-04-25T10:24:51.261Z,1.66
2023-04-25T10:25:52.444Z,2.04
2023-04-25T10:26:51.778Z,2.09
2023-04-25T10:27:51.243Z,1.94
2023-04-25T10:28:51.908Z,2.01
2023-04-25T10:29:51.204Z,2.77
2023-04-25T10:30:51.288Z,3.20
2023-04-25T10:31:51.800Z,2.03
2023-04-25T10:32:51.191Z,8.88
2023-04-25T10:33:52.129Z,5.98
2023-04-25T10:34:51.175Z,8.89
2023-04-25T10:35:51.164Z,12.07
2023-04-25T10:36:51.224Z,5.23
2023-04-25T10:37:51.173Z,2.59
2023-04-25T10:38:51.734Z,1.61
2023-04-25T10:39:51.348Z,1.56
2023-04-25T10:40:51.153Z,1.70
2023-04-25T10:41:51.227Z,1.94
2023-04-25T10:42:51.141Z,2.18
2023-04-25T10:43:51.356Z,1.70
2023-04-25T10:44:51.191Z,1.92
2023-04-25T10:45:51.163Z,1.61
2023-04-25T10:46:51.217Z,2.18
2023-04-25T10:47:51.125Z,2.89
2023-04-25T10:48:51.134Z,1.87
2023-04-25T10:49:51.236Z,1.91
2023-04-25T10:50:51.164Z,1.89
2023-04-25T10:52:52.071Z,1.74
2023-04-25T10:53:51.304Z,1.62
2023-04-25T10:54:51.126Z,1.61
2023-04-25T10:55:51.067Z,1.63
2023-04-25T10:56:51.065Z,1.92
2023-04-25T10:57:51.050Z,1.91
2023-04-25T10:58:52.187Z,1.87
2023-04-25T10:59:51.256Z,2.27
2023-04-25T11:00:57.592Z,1.96
2023-04-25T11:01:52.172Z,1.85
2023-04-25T11:02:51.299Z,2.12
2023-04-25T11:03:51.203Z,2.03
2023-04-25T11:04:51.104Z,1.82
2023-04-25T11:05:58.323Z,3.50
2023-04-25T11:06:53.819Z,3.60
2023-04-25T11:07:59.977Z,3.64
2023-04-25T11:08:52.081Z,6.48
2023-04-25T11:09:51.812Z,8.32
2023-04-25T11:10:52.216Z,4.71
2023-04-25T11:11:51.252Z,5.75
2023-04-25T11:12:50.958Z,4.37
2023-04-25T11:13:50.925Z,3.36
2023-04-25T11:14:51.257Z,2.69
2023-04-25T11:15:55.156Z,2.50
2023-04-25T11:16:51.945Z,2.19
2023-04-25T11:17:51.042Z,1.57
2023-04-25T11:18:51.044Z,1.77
2023-04-25T11:19:50.902Z,1.92
2023-04-25T11:20:50.871Z,2.12
2023-04-25T11:21:50.866Z,2.13
2023-04-25T11:22:52.710Z,2.48
2023-04-25T11:23:51.009Z,2.94
2023-04-25T11:24:50.881Z,2.33
2023-04-25T11:25:50.845Z,2.35
2023-04-25T11:26:50.877Z,2.83
2023-04-25T11:27:51.271Z,3.02
2023-04-25T11:28:50.830Z,3.28
2023-04-25T11:29:50.877Z,2.90
2023-04-25T11:30:50.938Z,2.03
2023-04-25T11:31:50.863Z,2.05
2023-04-25T11:32:51.362Z,1.90
2023-04-25T11:33:51.124Z,2.00
2023-04-25T11:34:50.809Z,2.07
2023-04-25T11:35:50.798Z,1.65
2023-04-25T11:36:50.838Z,1.18
2023-04-25T11:37:50.858Z,1.33
2023-04-25T11:38:50.924Z,1.39
2023-04-25T11:39:50.874Z,1.17
2023-04-25T11:40:50.921Z,1.06
2023-04-25T11:41:50.975Z,1.31
2023-04-25T11:42:52.474Z,1.02
2023-04-25T11:43:51.018Z,1.25
2023-04-25T11:44:51.092Z,1.22
2023-04-25T11:45:51.150Z,1.53
2023-04-25T11:46:51.144Z,1.32
2023-04-25T11:47:51.137Z,1.23
2023-04-25T11:48:51.315Z,0.93
2023-04-25T11:49:51.261Z,1.19
2023-04-25T11:50:51.211Z,1.01
2023-04-25T11:51:51.295Z,1.21
2023-04-25T11:52:51.488Z,0.97
2023-04-25T11:53:51.300Z,0.95
2023-04-25T11:54:51.340Z,0.86
2023-04-25T11:55:52.068Z,0.94
2023-04-25T11:56:51.371Z,0.80
2023-04-25T11:57:51.399Z,0.74
2023-04-25T11:58:51.441Z,0.89
2023-04-25T11:59:51.550Z,1.09
2023-04-25T12:00:51.499Z,1.05
2023-04-25T12:01:51.659Z,1.02
2023-04-25T12:02:51.679Z,0.72
2023-04-25T12:03:51.756Z,1.03
2023-04-25T12:04:51.721Z,0.91
2023-04-25T12:05:51.919Z,1.11
2023-04-25T12:06:51.854Z,0.93
2023-04-25T12:07:51.779Z,0.82
2023-04-25T12:08:51.969Z,0.61
2023-04-25T12:09:51.768Z,0.87
2023-04-25T12:10:51.883Z,0.74
2023-04-25T12:11:51.972Z,0.51
2023-04-25T12:12:52.437Z,0.45
2023-04-25T12:13:51.997Z,0.80
2023-04-25T12:14:51.858Z,0.72
2023-04-25T12:15:51.942Z,0.69
2023-04-25T12:16:51.894Z,0.87
2023-04-25T12:17:51.993Z,1.00
2023-04-25T12:18:52.284Z,1.16
2023-04-25T12:19:52.031Z,0.79
2023-04-25T12:20:52.026Z,0.51
2023-04-25T12:21:58.032Z,0.71
2023-04-25T12:22:53.277Z,0.51
2023-04-25T12:23:52.078Z,0.69
2023-04-25T12:24:52.052Z,0.74
2023-04-25T12:25:52.078Z,0.64
2023-04-25T12:26:52.082Z,0.52
2023-04-25T12:27:52.042Z,0.70
2023-04-25T12:28:52.235Z,0.71
2023-04-25T12:29:52.017Z,0.61
2023-04-25T12:30:52.008Z,0.56
2023-04-25T12:31:52.924Z,0.52
2023-04-25T12:32:52.022Z,0.67
2023-04-25T12:33:51.989Z,0.59
2023-04-25T12:34:51.995Z,0.82
2023-04-25T12:35:51.994Z,0.54
2023-04-25T12:36:52.018Z,0.45
2023-04-25T12:37:52.083Z,0.74
2023-04-25T12:38:52.573Z,2.53
2023-04-25T12:39:52.117Z,0.59
2023-04-25T12:40:52.154Z,0.40
2023-04-25T12:41:52.184Z,0.59
2023-04-25T12:42:52.225Z,0.81
2023-04-25T12:43:52.269Z,0.37
2023-04-25T12:44:52.279Z,0.84
2023-04-25T12:45:52.330Z,0.51
2023-04-25T12:46:52.418Z,0.98
2023-04-25T12:47:52.429Z,0.67
2023-04-25T12:48:52.540Z,0.69
2023-04-25T12:49:52.379Z,0.83
2023-04-25T12:50:52.428Z,0.62
2023-04-25T12:51:52.463Z,0.81
2023-04-25T12:52:52.475Z,0.61
2023-04-25T12:53:52.499Z,0.45
2023-04-25T12:54:52.570Z,0.47
2023-04-25T12:55:52.717Z,0.84
2023-04-25T12:56:52.650Z,0.66
2023-04-25T12:57:52.668Z,0.49
2023-04-25T12:58:53.020Z,0.75
2023-04-25T12:59:52.710Z,0.56
2023-04-25T13:00:52.810Z,0.65
2023-04-25T13:01:52.878Z,0.67
2023-04-25T13:02:52.919Z,0.69
2023-04-25T13:03:53.042Z,0.36
2023-04-25T13:04:52.858Z,0.60
2023-04-25T13:05:53.791Z,0.65
2023-04-25T13:06:52.948Z,0.60
2023-04-25T13:07:52.962Z,0.89
2023-04-25T13:08:53.361Z,0.72
2023-04-25T13:09:53.048Z,0.40
2023-04-25T13:10:53.088Z,0.63
2023-04-25T13:11:56.036Z,0.57
2023-04-25T13:12:53.027Z,0.65
2023-04-25T13:13:53.475Z,0.38
2023-04-25T13:14:53.090Z,0.89
2023-04-25T13:15:53.012Z,0.47
2023-04-25T13:16:53.049Z,0.72
2023-04-25T13:17:53.050Z,0.61
2023-04-25T13:18:53.045Z,0.70